Time;durP1;ratioP1;P1;durP2;ratioP2;P2;SDS_P1;SDS_P2;PMS_P1;PMS_P2;Temp;Humidity;BMP_temperature;BMP_pressure;BME280_temperature;BME280_humidity;BME280_pressure;Samples;Min_cycle;Max_cycle;Signal;HPM_P1;HPM_P2
2022/02/23 00:00:35;;;;;;;3.10;0.93;;;;;;;7.00;100.00;98273.97;10346728;28;20050;-65
2022/02/23 00:05:43;;;;;;;2.88;0.80;;;;;;;6.90;100.00;98283.84;10313579;28;20069;-66
2022/02/23 00:10:47;;;;;;;3.53;1.00;;;;;;;6.85;100.00;98286.97;10312484;28;20105;-64
2022/02/23 00:15:54;;;;;;;2.88;0.77;;;;;;;6.73;100.00;98288.94;10316826;28;20509;-64
2022/02/23 00:21:03;;;;;;;3.13;1.00;;;;;;;6.71;100.00;98320.38;10321664;28;20043;-65
2022/02/23 00:26:08;;;;;;;3.38;1.08;;;;;;;6.56;100.00;98319.06;10315254;28;20476;-65
2022/02/23 00:31:14;;;;;;;3.92;1.10;;;;;;;6.39;100.00;98339.31;10311950;28;20050;-64
2022/02/23 00:36:18;;;;;;;2.63;0.93;;;;;;;6.32;100.00;98385.34;10298443;28;20198;-63
2022/02/23 00:41:22;;;;;;;5.65;1.33;;;;;;;6.17;100.00;98379.50;10314380;28;20056;-65
2022/02/23 00:46:25;;;;;;;5.05;1.30;;;;;;;6.20;100.00;98393.59;10312242;28;20077;-65
2022/02/23 00:51:30;;;;;;;5.40;1.40;;;;;;;6.00;100.00;98398.88;10318146;28;20116;-64
2022/02/23 00:56:33;;;;;;;4.95;1.20;;;;;;;5.88;100.00;98390.03;10310988;28;20585;-65
2022/02/23 01:02:26;;;;;;;4.57;1.10;;;;;;;5.69;100.00;98401.47;10313762;28;20050;-64
2022/02/23 01:07:31;;;;;;;5.72;1.40;;;;;;;5.57;100.00;98421.22;10303519;28;20118;-64
2022/02/23 01:12:34;;;;;;;6.88;1.40;;;;;;;5.44;100.00;98438.28;10298324;28;20072;-64
2022/02/23 01:17:39;;;;;;;6.45;1.63;;;;;;;5.31;100.00;98437.59;10307059;28;20045;-65
2022/02/23 01:22:43;;;;;;;4.68;1.30;;;;;;;5.22;100.00;98461.44;10301117;28;20215;-65
2022/02/23 01:27:46;;;;;;;6.55;1.48;;;;;;;5.14;100.00;98461.19;10307212;28;20132;-64
2022/02/23 01:32:49;;;;;;;7.00;1.60;;;;;;;5.04;100.00;98469.13;10303972;28;20515;-65
2022/02/23 01:37:54;;;;;;;4.28;1.30;;;;;;;5.02;100.00;98478.22;10311336;28;20046;-64
2022/02/23 01:42:57;;;;;;;8.25;1.73;;;;;;;4.97;100.00;98475.09;10310427;28;20073;-65
2022/02/23 01:48:00;;;;;;;8.57;1.90;;;;;;;4.96;100.00;98489.41;10302931;28;20158;-64
2022/02/23 01:53:05;;;;;;;6.35;1.55;;;;;;;4.86;100.00;98482.16;10306035;28;20484;-65
2022/02/23 01:58:34;;;;;;;8.05;1.77;;;;;;;4.69;100.00;98507.53;10298655;28;20050;-65
2022/02/23 02:03:37;;;;;;;5.20;1.30;;;;;;;4.60;100.00;98511.78;10303930;28;20046;-63
2022/02/23 02:08:41;;;;;;;7.00;1.52;;;;;;;4.65;100.00;98524.75;10312601;28;20057;-64
2022/02/23 02:13:47;;;;;;;8.82;1.77;;;;;;;4.60;100.00;98527.78;10303968;28;20411;-65
2022/02/23 02:18:51;;;;;;;7.72;1.60;;;;;;;4.55;100.00;98540.63;10299414;28;20118;-64
2022/02/23 02:23:56;;;;;;;8.40;2.00;;;;;;;4.51;100.00;98541.84;10303091;28;20038;-65
2022/02/23 02:28:59;;;;;;;7.80;1.90;;;;;;;4.32;100.00;98545.94;10312012;28;20046;-65
2022/02/23 02:34:02;;;;;;;6.13;1.80;;;;;;;4.25;100.00;98566.06;10299803;28;20157;-65
2022/02/23 02:39:07;;;;;;;8.45;1.70;;;;;;;4.16;100.00;98582.75;10291158;28;20073;-64
2022/02/23 02:44:11;;;;;;;8.32;1.95;;;;;;;4.10;100.00;98583.22;10303744;28;20118;-64
2022/02/23 02:49:14;;;;;;;6.03;1.60;;;;;;;4.13;100.00;98590.97;10292425;28;20051;-64
2022/02/23 02:54:18;;;;;;;8.95;1.98;;;;;;;4.11;100.00;98587.56;10296143;28;20924;-65
2022/02/23 02:59:21;;;;;;;9.48;2.00;;;;;;;4.19;100.00;98585.16;10297948;28;20579;-64
2022/02/23 03:04:26;;;;;;;9.25;2.10;;;;;;;4.10;100.00;98600.06;10304753;28;20121;-64
2022/02/23 03:09:30;;;;;;;11.10;2.15;;;;;;;4.11;100.00;98611.56;10303877;28;20177;-66
2022/02/23 03:14:34;;;;;;;8.63;2.17;;;;;;;4.08;100.00;98627.78;10301731;28;20149;-66
2022/02/23 03:19:37;;;;;;;8.85;2.20;;;;;;;4.04;100.00;98648.50;10309661;28;20051;-63
2022/02/23 03:24:42;;;;;;;11.45;2.40;;;;;;;3.98;100.00;98665.81;10304273;28;20066;-65
2022/02/23 03:29:45;;;;;;;10.23;2.10;;;;;;;4.02;100.00;98669.09;10303444;28;20126;-64
2022/02/23 03:34:48;;;;;;;12.23;2.50;;;;;;;4.00;100.00;98658.56;10303551;28;20125;-64
2022/02/23 03:40:51;;;;;;;11.20;2.15;;;;;;;4.13;100.00;98669.16;10310939;28;20392;-64
2022/02/23 03:45:56;;;;;;;11.10;1.88;;;;;;;4.28;100.00;98666.31;10305328;28;20046;-64
2022/02/23 03:50:59;;;;;;;9.40;2.00;;;;;;;4.32;100.00;98657.94;10307460;28;20137;-65
2022/02/23 03:56:02;;;;;;;10.90;2.15;;;;;;;4.39;100.00;98670.84;10310938;28;20039;-64
2022/02/23 04:01:08;;;;;;;7.78;1.92;;;;;;;4.42;100.00;98683.94;10308186;28;20517;-65
2022/02/23 04:06:11;;;;;;;10.02;2.30;;;;;;;4.58;100.00;98688.97;10302442;28;20049;-63
2022/02/23 04:11:14;;;;;;;11.95;2.20;;;;;;;4.66;100.00;98709.72;10287263;28;20072;-63
2022/02/23 04:16:21;;;;;;;11.30;2.03;;;;;;;4.72;100.00;98714.59;10299704;28;20050;-63
2022/02/23 04:21:24;;;;;;;8.90;2.30;;;;;;;4.71;100.00;98726.25;10298968;28;20055;-64
2022/02/23 04:26:28;;;;;;;10.38;2.08;;;;;;;4.81;100.00;98737.09;10301052;28;20130;-64
2022/02/23 04:31:34;;;;;;;10.07;2.17;;;;;;;4.77;100.00;98731.09;10298913;28;20058;-66
2022/02/23 04:36:38;;;;;;;10.07;2.05;;;;;;;4.82;100.00;98742.28;10299537;28;20053;-65
2022/02/23 04:41:41;;;;;;;8.70;1.90;;;;;;;4.86;100.00;98746.44;10300570;28;20564;-65
2022/02/23 04:46:45;;;;;;;10.63;2.22;;;;;;;4.78;100.00;98775.53;10314984;28;20150;-65
2022/02/23 04:51:48;;;;;;;11.32;2.15;;;;;;;4.82;100.00;98785.00;10300202;28;20055;-65
2022/02/23 04:56:52;;;;;;;11.02;2.28;;;;;;;4.85;100.00;98797.25;10302323;28;20450;-65
2022/02/23 05:01:56;;;;;;;9.00;2.15;;;;;;;4.81;100.00;98802.00;10300116;28;20173;-64
2022/02/23 05:07:00;;;;;;;10.07;2.15;;;;;;;4.90;100.00;98811.13;10310209;28;20057;-65
2022/02/23 05:12:05;;;;;;;11.43;2.10;;;;;;;4.93;100.00;98816.25;10307095;28;20038;-64
2022/02/23 05:17:11;;;;;;;7.28;1.88;;;;;;;4.96;100.00;98831.19;10305338;28;20039;-64
2022/02/23 05:22:15;;;;;;;11.05;2.03;;;;;;;5.00;100.00;98838.00;10309610;28;20058;-65
2022/02/23 05:27:18;;;;;;;11.88;2.20;;;;;;;4.90;100.00;98838.66;10360960;22;20116;-65
2022/02/23 05:32:22;;;;;;;9.35;1.88;;;;;;;4.93;100.00;98842.94;10353353;28;20421;-64
2022/02/23 05:37:26;;;;;;;11.20;2.30;;;;;;;4.86;100.00;98847.91;10342379;28;20050;-64
2022/02/23 05:42:29;;;;;;;10.10;2.13;;;;;;;4.76;100.00;98852.22;10356583;28;20038;-65
2022/02/23 05:47:34;;;;;;;10.38;2.15;;;;;;;4.74;100.00;98862.16;10344770;28;20041;-64
2022/02/23 05:52:38;;;;;;;8.15;2.10;;;;;;;4.66;100.00;98869.84;10346657;28;20057;-62
2022/02/23 05:57:41;;;;;;;9.93;2.13;;;;;;;4.70;100.00;98887.34;10333807;28;20505;-65
2022/02/23 06:02:47;;;;;;;10.07;2.03;;;;;;;4.68;100.00;98899.94;10324400;28;20054;-65
2022/02/23 06:07:50;;;;;;;9.02;2.03;;;;;;;4.58;100.00;98919.31;10334528;28;20117;-62
2022/02/23 06:12:53;;;;;;;7.28;1.83;;;;;;;4.57;100.00;98925.59;10342622;28;20141;-65
2022/02/23 06:17:58;;;;;;;11.23;2.35;;;;;;;4.59;100.00;98930.81;10348167;28;20077;-62
2022/02/23 06:23:01;;;;;;;8.98;1.85;;;;;;;4.45;100.00;98940.69;10335430;28;20065;-62
2022/02/23 06:28:04;;;;;;;7.38;1.70;;;;;;;4.44;100.00;98946.13;10343737;28;20125;-63
2022/02/23 06:33:08;;;;;;;8.13;1.98;;;;;;;4.52;100.00;98966.94;10348139;28;20052;-62
2022/02/23 06:38:12;;;;;;;6.70;1.50;;;;;;;4.54;100.00;98976.53;10336655;28;20129;-63
2022/02/23 06:43:16;;;;;;;8.48;1.83;;;;;;;4.49;100.00;98973.34;10325976;28;20506;-64
2022/02/23 06:48:22;;;;;;;10.10;2.10;;;;;;;4.53;100.00;98979.31;10332191;28;20045;-61
2022/02/23 06:53:25;;;;;;;8.60;1.67;;;;;;;4.60;100.00;99000.13;10342543;28;20195;-62
2022/02/23 06:58:29;;;;;;;9.93;2.13;;;;;;;4.62;100.00;99000.88;10342710;28;20552;-63
2022/02/23 07:03:33;;;;;;;9.65;1.80;;;;;;;4.63;100.00;99007.91;10346400;28;20767;-62
2022/02/23 07:08:37;;;;;;;7.53;1.70;;;;;;;4.65;100.00;99007.78;10344754;28;20117;-63
2022/02/23 07:13:41;;;;;;;7.47;1.60;;;;;;;4.66;100.00;99019.31;10333408;28;20073;-63
2022/02/23 07:18:46;;;;;;;9.32;1.92;;;;;;;4.71;100.00;99033.19;10347451;28;20037;-64
2022/02/23 07:23:50;;;;;;;7.32;1.77;;;;;;;4.76;100.00;99049.75;10350860;28;20096;-63
2022/02/23 07:28:54;;;;;;;8.98;1.63;;;;;;;4.83;100.00;99055.47;10351921;28;20053;-61
2022/02/23 07:33:58;;;;;;;6.85;1.85;;;;;;;4.86;100.00;99064.16;10353849;28;20474;-62
2022/02/23 07:39:01;;;;;;;6.82;1.70;;;;;;;5.00;100.00;99075.66;10351952;28;20125;-61
2022/02/23 07:44:05;;;;;;;6.80;1.60;;;;;;;5.04;100.00;99087.81;10341115;28;20042;-63
2022/02/23 07:49:11;;;;;;;8.23;1.98;;;;;;;5.20;100.00;99106.25;10316439;28;20053;-64
2022/02/23 07:54:14;;;;;;;8.35;1.85;;;;;;;5.15;100.00;99109.28;10333997;28;20435;-64
2022/02/23 07:59:19;;;;;;;8.50;1.80;;;;;;;5.21;100.00;99122.22;10326874;28;20197;-68
2022/02/23 08:04:24;;;;;;;7.45;1.73;;;;;;;5.24;100.00;99123.78;10349091;28;20042;-61
2022/02/23 08:09:27;;;;;;;9.07;1.90;;;;;;;5.37;100.00;99134.44;10340337;28;20054;-66
2022/02/23 08:14:30;;;;;;;7.15;1.85;;;;;;;5.37;100.00;99139.78;10337837;28;20137;-64
2022/02/23 08:19:35;;;;;;;6.70;1.85;;;;;;;5.45;100.00;99141.91;10350660;28;20081;-65
2022/02/23 08:24:43;;;;;;;9.50;1.90;;;;;;;5.55;100.00;99149.16;10345986;28;20064;-63
2022/02/23 08:29:47;;;;;;;7.65;1.67;;;;;;;5.72;100.00;99149.75;10344514;28;20045;-67
2022/02/23 08:34:53;;;;;;;10.40;1.80;;;;;;;5.67;100.00;99149.25;10330480;28;20084;-61
2022/02/23 08:39:57;;;;;;;7.43;1.73;;;;;;;5.77;100.00;99150.25;10347413;28;20050;-67
2022/02/23 08:45:01;;;;;;;6.53;1.77;;;;;;;5.82;100.00;99139.22;10345520;28;20104;-66
2022/02/23 08:50:07;;;;;;;10.05;1.70;;;;;;;5.94;100.00;99154.38;10348896;28;20053;-66
2022/02/23 08:55:12;;;;;;;6.72;1.67;;;;;;;6.16;100.00;99153.66;10351200;28;20054;-66
2022/02/23 09:00:17;;;;;;;9.55;1.98;;;;;;;6.28;100.00;99153.72;10351039;28;20058;-66
2022/02/23 09:05:22;;;;;;;8.50;1.80;;;;;;;6.27;100.00;99160.03;10341099;28;20092;-65
2022/02/23 09:10:25;;;;;;;7.78;2.00;;;;;;;6.60;100.00;99145.88;10336183;28;20206;-68
2022/02/23 09:15:28;;;;;;;8.50;1.98;;;;;;;6.55;100.00;99161.47;10355680;28;20124;-65
2022/02/23 09:20:33;;;;;;;10.60;2.20;;;;;;;6.55;100.00;99161.47;10354714;28;20415;-66
2022/02/23 09:25:39;;;;;;;5.60;1.65;;;;;;;6.68;100.00;99169.41;10358592;28;20054;-66
2022/02/23 09:30:42;;;;;;;9.48;1.88;;;;;;;6.58;100.00;99161.22;10353889;28;20387;-66
2022/02/23 09:35:49;;;;;;;8.65;2.20;;;;;;;6.88;100.00;99156.31;10349963;28;20046;-61
2022/02/23 09:40:53;;;;;;;6.03;1.67;;;;;;;7.14;100.00;99169.47;10334575;28;20054;-60
2022/02/23 09:45:57;;;;;;;8.95;2.00;;;;;;;7.06;100.00;99141.44;10335677;28;20042;-65
2022/02/23 09:51:04;;;;;;;6.15;1.60;;;;;;;7.04;100.00;99147.91;10336696;28;20101;-62
2022/02/23 09:56:07;;;;;;;7.13;1.83;;;;;;;7.06;100.00;99162.88;10331371;28;20430;-64
2022/02/23 10:01:11;;;;;;;7.78;1.90;;;;;;;7.18;100.00;99161.06;10339184;28;20056;-64
2022/02/23 10:06:20;;;;;;;8.93;2.00;;;;;;;7.39;100.00;99166.53;10341716;28;20560;-64
2022/02/23 10:11:27;;;;;;;7.50;1.75;;;;;;;7.51;100.00;99161.16;10320521;28;20062;-60
2022/02/23 10:16:35;;;;;;;6.15;1.83;;;;;;;7.38;100.00;99158.63;10341624;28;20077;-64
2022/02/23 10:21:48;;;;;;;7.50;1.90;;;;;;;7.41;100.00;99171.78;10344950;28;20131;-63
2022/02/23 10:26:57;;;;;;;6.03;1.63;;;;;;;7.13;100.00;99163.25;10338281;28;20068;-59
2022/02/23 10:32:01;;;;;;;6.25;1.58;;;;;;;7.09;100.00;99178.72;10344511;28;20447;-65
2022/02/23 10:37:07;;;;;;;8.52;1.67;;;;;;;7.28;100.00;99188.00;10345749;28;20107;-61
2022/02/23 10:42:14;;;;;;;7.78;2.00;;;;;;;7.52;100.00;99187.00;10343818;28;20053;-65
2022/02/23 10:47:24;;;;;;;6.40;1.67;;;;;;;7.71;100.00;99183.72;10354462;28;20053;-61
2022/02/23 10:52:31;;;;;;;6.78;1.67;;;;;;;7.82;100.00;99196.25;10366901;28;20372;-65
2022/02/23 10:57:34;;;;;;;5.90;1.60;;;;;;;7.83;100.00;99200.63;10369718;28;20136;-63
2022/02/23 11:02:37;;;;;;;5.78;1.50;;;;;;;7.76;100.00;99202.09;10373926;28;20165;-64
2022/02/23 11:07:44;;;;;;;7.18;1.83;;;;;;;8.12;100.00;99200.91;10374976;28;20114;-65
2022/02/23 11:12:49;;;;;;;5.63;1.50;;;;;;;8.04;100.00;99206.06;10373648;28;20072;-63
2022/02/23 11:17:56;;;;;;;5.90;1.60;;;;;;;8.06;100.00;99192.53;10371306;28;20048;-63
2022/02/23 11:23:04;;;;;;;4.85;1.42;;;;;;;8.16;100.00;99198.84;10380116;28;20494;-65
2022/02/23 11:28:15;;;;;;;5.60;1.35;;;;;;;8.24;100.00;99190.16;10375436;28;20058;-65
2022/02/23 11:33:22;;;;;;;4.93;1.33;;;;;;;8.28;100.00;99202.34;10367885;28;20047;-65
2022/02/23 11:38:34;;;;;;;6.10;1.40;;;;;;;8.49;100.00;99197.06;10380427;28;20046;-62
2022/02/23 11:43:41;;;;;;;5.15;1.40;;;;;;;8.67;100.00;99183.03;10367454;28;20073;-64
2022/02/23 11:48:50;;;;;;;5.15;1.48;;;;;;;8.61;100.00;99179.03;10370480;28;20502;-65
2022/02/23 11:53:55;;;;;;;4.88;1.50;;;;;;;8.79;100.00;99185.56;10380845;28;20042;-65
2022/02/23 11:58:58;;;;;;;5.50;1.20;;;;;;;8.72;100.00;99180.81;10364205;28;20038;-64
2022/02/23 12:04:12;;;;;;;4.68;1.42;;;;;;;8.64;100.00;99184.16;10356539;28;20048;-66
2022/02/23 12:09:48;;;;;;;3.67;1.20;;;;;;;8.55;95.71;99177.72;10344207;28;20125;-66
2022/02/23 12:14:52;;;;;;;6.78;1.48;;;;;;;8.74;99.75;99181.56;10353325;28;20069;-65
2022/02/23 12:19:56;;;;;;;4.05;1.30;;;;;;;8.66;93.79;99178.66;10341492;28;20040;-65
2022/02/23 12:25:00;;;;;;;4.32;1.30;;;;;;;8.63;99.27;99169.91;10350176;28;20088;-66
2022/02/23 12:30:04;;;;;;;4.65;1.30;;;;;;;8.79;94.36;99172.13;10346689;28;20455;-67
2022/02/23 12:35:09;;;;;;;4.50;1.30;;;;;;;8.94;100.00;99178.00;10358006;28;20514;-65
2022/02/23 12:40:14;;;;;;;4.18;1.20;;;;;;;9.21;100.00;99164.97;10352423;28;20477;-66
2022/02/23 12:45:17;;;;;;;5.35;1.00;;;;;;;8.97;76.26;99165.28;10353037;28;20046;-63
2022/02/23 12:50:27;;;;;;;3.05;1.10;;;;;;;9.22;92.64;99164.88;10353026;28;20041;-66
2022/02/23 12:55:33;;;;;;;3.22;1.10;;;;;;;9.15;77.55;99157.47;10352335;28;20046;-66
2022/02/23 13:00:38;;;;;;;2.75;1.00;;;;;;;9.31;92.83;99154.28;10353982;28;20062;-65
2022/02/23 13:05:42;;;;;;;8.75;1.42;;;;;;;9.35;81.12;99169.16;10341598;28;20058;-64
2022/02/23 13:10:58;;;;;;;2.60;0.93;;;;;;;9.46;74.49;99149.38;10358114;28;20046;-64
2022/02/23 13:16:02;;;;;;;4.53;1.02;;;;;;;9.43;75.57;99139.75;10357208;28;20085;-63
2022/02/23 13:21:13;;;;;;;3.20;1.00;;;;;;;9.46;72.19;99146.69;10359390;28;20384;-66
2022/02/23 13:26:35;;;;;;;4.88;1.20;;;;;;;9.51;69.50;99141.75;10330208;28;20402;-65
2022/02/23 13:31:44;;;;;;;4.70;1.13;;;;;;;9.65;73.86;99137.81;10347464;28;20136;-64
2022/02/23 13:36:48;;;;;;;4.43;1.20;;;;;;;9.83;69.92;99144.22;10335999;28;20050;-66
2022/02/23 13:41:55;;;;;;;3.30;1.10;;;;;;;9.75;64.88;99141.38;10342086;28;20186;-65
2022/02/23 13:47:02;;;;;;;4.03;1.15;;;;;;;9.78;66.53;99140.25;10344095;28;20078;-65
2022/02/23 13:52:07;;;;;;;3.72;1.00;;;;;;;9.76;65.64;99144.94;10348078;28;20520;-65
2022/02/23 13:57:15;;;;;;;3.20;0.90;;;;;;;9.91;68.59;99121.16;10343595;28;20213;-65
2022/02/23 14:02:30;;;;;;;2.58;0.90;;;;;;;10.11;68.93;99128.25;10339455;28;20482;-67
2022/02/23 14:07:33;;;;;;;1.73;0.80;;;;;;;10.31;63.79;99117.47;10343625;28;20144;-66
2022/02/23 14:12:51;;;;;;;3.17;1.00;;;;;;;10.36;65.23;99109.84;10341029;28;20081;-63
2022/02/23 14:18:17;;;;;;;3.88;1.00;;;;;;;10.29;63.66;99116.81;10340971;28;20630;-64
2022/02/23 14:23:21;;;;;;;3.90;1.10;;;;;;;10.38;63.93;99099.81;10345882;28;20136;-65
2022/02/23 14:28:33;;;;;;;3.30;0.90;;;;;;;10.26;59.34;99103.59;10303845;28;20085;-61
2022/02/23 14:33:36;;;;;;;2.85;0.90;;;;;;;10.53;61.80;99104.72;10304747;28;20150;-64
2022/02/23 14:38:39;;;;;;;2.90;1.00;;;;;;;10.35;58.77;99102.75;10310592;28;20049;-63
2022/02/23 14:43:44;;;;;;;2.17;0.88;;;;;;;10.68;62.11;99102.47;10305392;28;20446;-64
2022/02/23 14:48:47;;;;;;;2.78;1.05;;;;;;;10.72;58.08;99096.63;10304008;28;20054;-65
2022/02/23 14:53:50;;;;;;;3.50;1.20;;;;;;;10.53;56.49;99092.13;10311456;28;20069;-65
2022/02/23 14:58:57;;;;;;;2.75;1.00;;;;;;;10.57;58.88;99084.59;10310430;28;20047;-64
2022/02/23 15:04:01;;;;;;;1.98;0.80;;;;;;;10.62;57.68;99093.94;10311881;28;20113;-64
2022/02/23 15:09:07;;;;;;;3.85;1.00;;;;;;;10.98;59.47;99076.25;10315752;28;20058;-65
2022/02/23 15:14:13;;;;;;;2.35;0.90;;;;;;;11.04;58.08;99073.81;10307229;28;20046;-64
2022/02/23 15:19:16;;;;;;;2.47;0.90;;;;;;;10.86;59.55;99075.59;10296915;28;20041;-63
2022/02/23 15:24:20;;;;;;;2.78;0.93;;;;;;;10.92;58.10;99078.56;10299533;28;20050;-64
2022/02/23 15:29:26;;;;;;;4.45;0.93;;;;;;;10.68;57.61;99059.34;10343292;28;20567;-64
2022/02/23 15:34:29;;;;;;;2.35;0.98;;;;;;;10.66;57.59;99066.72;10343943;28;20137;-61
2022/02/23 15:39:32;;;;;;;3.60;0.82;;;;;;;10.57;55.42;99072.00;10343308;28;20038;-65
2022/02/23 15:44:37;;;;;;;2.47;0.88;;;;;;;10.45;55.06;99076.69;10348548;28;21674;-65
2022/02/23 15:49:42;;;;;;;3.83;1.00;;;;;;;10.41;56.40;99071.72;10341365;28;20050;-65
2022/02/23 15:54:46;;;;;;;1.58;0.80;;;;;;;10.21;57.08;99065.47;10345116;28;20145;-62
2022/02/23 15:59:51;;;;;;;2.70;0.90;;;;;;;10.18;58.24;99054.00;10350162;28;20085;-65
2022/02/23 16:04:54;;;;;;;2.85;0.80;;;;;;;10.07;62.34;99056.84;10353814;28;20050;-66
2022/02/23 16:09:59;;;;;;;2.95;0.88;;;;;;;10.06;60.98;99049.75;10352334;28;20125;-61
2022/02/23 16:15:04;;;;;;;2.55;1.00;;;;;;;9.81;60.17;99059.25;10334923;28;20061;-65
2022/02/23 16:20:09;;;;;;;3.97;0.98;;;;;;;9.63;61.81;99045.63;10347194;28;20046;-66
2022/02/23 16:25:12;;;;;;;2.83;1.00;;;;;;;9.51;63.08;99040.38;10351250;28;20567;-65
2022/02/23 16:30:17;;;;;;;2.30;0.80;;;;;;;9.39;64.83;99034.28;10328741;28;20497;-64
2022/02/23 16:35:20;;;;;;;3.90;0.98;;;;;;;9.31;61.83;99027.91;10355557;28;20433;-60
2022/02/23 16:40:24;;;;;;;3.50;1.15;;;;;;;9.15;66.29;99029.25;10355963;28;20092;-61
2022/02/23 16:45:28;;;;;;;5.78;2.45;;;;;;;8.78;65.40;99027.16;10357719;28;20065;-64
2022/02/23 16:50:32;;;;;;;3.13;1.40;;;;;;;8.76;74.89;99029.16;10357027;28;20073;-65
2022/02/23 16:55:35;;;;;;;3.42;1.50;;;;;;;8.60;72.70;99030.47;10358486;28;20042;-65
2022/02/23 17:00:44;;;;;;;3.47;1.80;;;;;;;8.42;72.70;99032.88;10358601;28;20128;-59
2022/02/23 17:05:49;;;;;;;3.10;1.77;;;;;;;8.24;70.66;99035.31;10331786;28;20043;-60
2022/02/23 17:10:53;;;;;;;5.32;1.58;;;;;;;8.07;75.14;99034.06;10344651;28;20105;-65
2022/02/23 17:15:58;;;;;;;5.13;1.65;;;;;;;7.93;76.54;99037.94;10333615;28;20562;-63
2022/02/23 17:21:02;;;;;;;4.35;1.80;;;;;;;7.72;78.72;99041.41;10337819;28;20520;-68
2022/02/23 17:26:05;;;;;;;3.30;1.48;;;;;;;7.49;77.22;99051.38;10332887;28;20054;-66
2022/02/23 17:31:10;;;;;;;2.72;1.45;;;;;;;7.33;85.55;99046.41;10347918;28;20078;-61
2022/02/23 17:36:13;;;;;;;4.22;1.48;;;;;;;7.18;88.52;99036.94;10345375;28;20145;-64
2022/02/23 17:41:16;;;;;;;5.05;1.60;;;;;;;7.05;93.45;99045.97;10341820;28;20042;-64
2022/02/23 17:46:21;;;;;;;4.00;1.70;;;;;;;6.85;95.52;99036.84;10347272;28;20053;-66
2022/02/23 17:51:25;;;;;;;3.80;1.70;;;;;;;6.73;95.35;99038.69;10321929;28;20453;-65
2022/02/23 17:56:28;;;;;;;3.08;1.65;;;;;;;6.60;100.00;99030.75;10342360;28;20097;-62
2022/02/23 18:01:33;;;;;;;4.93;1.55;;;;;;;6.43;100.00;99029.41;10351894;28;20078;-63
2022/02/23 18:06:41;;;;;;;3.78;1.60;;;;;;;6.28;100.00;99026.09;10353559;28;20523;-61
2022/02/23 18:11:45;;;;;;;3.67;2.05;;;;;;;6.10;100.00;99019.50;10352813;28;20137;-64
2022/02/23 18:16:50;;;;;;;5.13;2.60;;;;;;;6.00;100.00;99022.03;10350407;28;20541;-65
2022/02/23 18:21:53;;;;;;;4.93;2.92;;;;;;;5.94;100.00;99014.44;10346090;28;20807;-66
2022/02/23 18:26:56;;;;;;;5.90;3.20;;;;;;;5.93;100.00;99002.03;10336920;28;20521;-64
2022/02/23 18:32:00;;;;;;;4.75;2.50;;;;;;;5.81;100.00;98999.34;10346329;28;20053;-68
2022/02/23 18:37:04;;;;;;;4.50;1.90;;;;;;;5.67;100.00;98986.16;10355272;28;20553;-65
2022/02/23 18:42:08;;;;;;;3.92;1.60;;;;;;;5.55;100.00;98994.13;10350270;28;20117;-62
2022/02/23 18:47:12;;;;;;;4.93;1.67;;;;;;;5.44;100.00;98991.41;10350207;28;20517;-54
2022/02/23 18:52:16;;;;;;;4.03;1.60;;;;;;;5.34;100.00;98974.38;10343678;28;20046;-55
2022/02/23 18:57:20;;;;;;;3.88;1.58;;;;;;;5.31;100.00;98971.91;10338502;28;20050;-58
2022/02/23 19:02:24;;;;;;;2.88;1.65;;;;;;;5.24;100.00;98967.00;10317563;28;20148;-68
2022/02/23 19:07:28;;;;;;;4.13;1.63;;;;;;;5.20;100.00;98968.22;10329057;28;20046;-68
2022/02/23 19:12:31;;;;;;;5.72;1.90;;;;;;;5.14;100.00;98970.50;10332823;28;20038;-68
2022/02/23 19:17:43;;;;;;;4.30;1.88;;;;;;;5.05;100.00;98964.88;10338518;28;20042;-68
2022/02/23 19:22:47;;;;;;;5.40;2.17;;;;;;;4.97;100.00;98961.06;10342967;28;20136;-68
2022/02/23 19:27:50;;;;;;;5.43;2.70;;;;;;;4.80;100.00;98951.59;10331927;28;20057;-68
2022/02/23 19:32:55;;;;;;;5.03;3.15;;;;;;;4.70;100.00;98949.59;10335189;28;20053;-68
2022/02/23 19:37:58;;;;;;;7.07;3.92;;;;;;;4.61;100.00;98943.13;10348082;28;20054;-65
2022/02/23 19:43:02;;;;;;;9.15;3.38;;;;;;;4.53;100.00;98948.13;10347344;28;20050;-67
2022/02/23 19:48:11;;;;;;;7.25;2.20;;;;;;;4.44;100.00;98935.44;10344980;28;20149;-66
2022/02/23 19:53:14;;;;;;;7.68;2.55;;;;;;;4.37;100.00;98931.53;10348217;28;20053;-66
2022/02/23 20:05:14;;;;;;;5.10;1.80;;;;;;;4.27;100.00;98920.66;10363515;28;20441;-67
2022/02/23 20:10:20;;;;;;;5.18;1.77;;;;;;;4.26;100.00;98919.81;10371165;28;20044;-64
2022/02/23 20:15:25;;;;;;;6.55;1.90;;;;;;;4.21;100.00;98905.94;10370920;28;20038;-65
2022/02/23 20:20:29;;;;;;;6.03;1.85;;;;;;;4.18;100.00;98907.97;10355886;28;20049;-61
2022/02/23 20:25:32;;;;;;;4.43;1.67;;;;;;;4.27;100.00;98891.31;10376251;28;20080;-66
2022/02/23 20:30:36;;;;;;;5.05;1.65;;;;;;;4.26;100.00;98893.13;10376794;28;20046;-65
2022/02/23 20:35:40;;;;;;;5.63;1.90;;;;;;;4.26;100.00;98884.25;10369548;28;20088;-64
2022/02/23 20:40:45;;;;;;;6.93;2.10;;;;;;;4.18;100.00;98866.13;10358819;28;20461;-63
2022/02/23 20:45:48;;;;;;;7.40;1.90;;;;;;;4.08;100.00;98862.44;10358384;28;20124;-61
2022/02/23 20:50:53;;;;;;;5.47;1.73;;;;;;;4.08;100.00;98854.44;10370718;28;20713;-58
2022/02/23 20:55:56;;;;;;;6.90;2.28;;;;;;;4.05;100.00;98846.66;10367280;28;20120;-65
2022/02/23 21:00:59;;;;;;;5.55;1.85;;;;;;;4.00;100.00;98853.16;10377146;28;20131;-66
2022/02/23 21:06:04;;;;;;;4.32;1.90;;;;;;;3.92;100.00;98844.00;10373174;28;20043;-64
2022/02/23 21:11:07;;;;;;;5.95;1.85;;;;;;;3.87;100.00;98838.16;10351166;28;20056;-60
2022/02/23 21:16:10;;;;;;;4.82;1.90;;;;;;;3.89;100.00;98839.75;10338991;28;20077;-63
2022/02/23 21:21:15;;;;;;;6.93;2.30;;;;;;;3.87;100.00;98833.66;10345157;28;20499;-64
2022/02/23 21:26:19;;;;;;;5.32;1.95;;;;;;;3.81;100.00;98824.28;10343863;28;20058;-60
2022/02/23 21:31:22;;;;;;;6.85;2.03;;;;;;;3.73;100.00;98812.47;10347912;28;20038;-60
2022/02/23 21:36:33;;;;;;;4.82;1.80;;;;;;;3.63;100.00;98809.63;10350998;28;20065;-62
2022/02/23 21:41:37;;;;;;;4.93;1.80;;;;;;;3.61;100.00;98807.03;10340242;28;20060;-62
2022/02/23 21:46:40;;;;;;;6.93;1.90;;;;;;;3.51;100.00;98805.97;10347922;28;20110;-62
2022/02/23 21:51:45;;;;;;;6.57;2.00;;;;;;;3.48;100.00;98811.50;10347634;28;20057;-59
2022/02/23 21:56:48;;;;;;;5.40;1.80;;;;;;;3.37;100.00;98807.78;10352037;28;20049;-63
2022/02/23 22:01:51;;;;;;;6.18;1.88;;;;;;;3.32;100.00;98812.59;10350766;28;20041;-62
2022/02/23 22:06:56;;;;;;;5.28;1.60;;;;;;;3.41;100.00;98810.25;10353412;28;20798;-59
2022/02/23 22:12:02;;;;;;;3.97;1.50;;;;;;;3.20;100.00;98824.09;10354232;28;20077;-59
2022/02/23 22:17:05;;;;;;;5.30;1.70;;;;;;;3.11;100.00;98825.56;10354573;28;20551;-61
2022/02/23 22:22:10;;;;;;;4.88;1.77;;;;;;;2.96;100.00;98827.44;10342142;28;20057;-65
2022/02/23 22:27:13;;;;;;;4.55;1.60;;;;;;;3.01;100.00;98835.13;10340980;28;20062;-61
2022/02/23 22:32:16;;;;;;;4.30;1.50;;;;;;;2.85;100.00;98822.84;10358411;28;20049;-63
2022/02/23 22:37:21;;;;;;;6.78;1.95;;;;;;;2.81;100.00;98829.34;10336560;28;20046;-63
2022/02/23 22:42:23;;;;;;;6.95;1.88;;;;;;;2.76;100.00;98837.59;10332352;28;20490;-62
2022/02/23 22:47:27;;;;;;;4.75;1.90;;;;;;;2.68;100.00;98825.78;10328071;28;20050;-63
2022/02/23 22:52:31;;;;;;;6.18;2.13;;;;;;;2.64;100.00;98811.81;10344674;28;20477;-63
2022/02/23 22:57:34;;;;;;;3.42;1.48;;;;;;;2.62;100.00;98819.06;10359799;28;20053;-60
2022/02/23 23:02:37;;;;;;;5.90;1.80;;;;;;;2.50;100.00;98804.75;10365654;28;20140;-61
2022/02/23 23:07:43;;;;;;;7.45;1.92;;;;;;;2.45;100.00;98796.22;10370457;28;20049;-63
2022/02/23 23:12:46;;;;;;;4.25;1.63;;;;;;;2.41;100.00;98798.22;10347857;28;20389;-60
2022/02/23 23:17:49;;;;;;;5.22;1.67;;;;;;;2.37;100.00;98786.09;10350083;28;20062;-60
2022/02/23 23:22:53;;;;;;;5.35;1.63;;;;;;;2.37;100.00;98788.75;10339602;28;20046;-61
2022/02/23 23:27:56;;;;;;;5.30;1.60;;;;;;;2.36;100.00;98779.06;10359705;28;20107;-59
2022/02/23 23:33:00;;;;;;;7.20;1.85;;;;;;;2.31;100.00;98781.16;10374322;28;20119;-62
2022/02/23 23:38:05;;;;;;;4.57;1.52;;;;;;;2.33;100.00;98771.28;10364828;28;20064;-61
2022/02/23 23:43:09;;;;;;;6.10;1.67;;;;;;;2.35;100.00;98779.16;10340892;28;20141;-61
2022/02/23 23:48:12;;;;;;;5.55;1.55;;;;;;;2.37;100.00;98783.44;10358440;28;20062;-61